Air Sicilia Virtual Airways - Route

Air Sicilia Virtual Airways - SIC379L

( RU ) UEEE
Yakutsk Airport
YAKUTSK ( YKS )
plane_to ( RU ) UHPP
Yelizovo Airport
PETROPAVLOVSK-KAMCHATSKY ( PKC )
IFR World Tour IVAO 2019 - LEG: 26

AIRPORT NEAR NAVIGATION AIDS

Type Name Frequency
NDB Yakutsk 334 KHZ
NDB Yakutsk 290 KHZ
NDB Yakutsk 334 KHZ

METAR / TAF
UEEE 191700Z 31004MPS CAVOK 00/M08 Q1011 R23L/09//60 NOSIG RMK QFE749
UEEE 191400Z 1915/2021 30003G08MPS CAVOK= UHMA 191345Z 1915/2015 16003MPS 9999 SCT013 BKN050 TEMPO 1915/2012 11008MPS 4000 BR BKN013 TEMPO 2012/2015 VRB01MPS

RUNWAY INFORMATION

Runway Runway length Runway width Runway elevation Runway displaced threshold Runway heading
05L 8202 161 322 0 29.6
23R 8202 161 318 3400 209.6
05R 11155 197 322 2965 36.9
23L 11155 197 315 0 216.9

AIRPORT FREQUENCIES

Type Name Frequency
APP APP 129.3 MHZ
ATIS ATIS 126.2 MHZ
GND GND 121.7 MHZ
RDR ASR 120.3 MHZ
TWR TWR 120 MHZ

AIRPORT NEAR NAVIGATION AIDS

Type Name Frequency
NDB Petropavlovsk-Kamchatsky 535 KHZ

METAR / TAF
UHPP 191700Z 07003MPS 050V130 9999 NSC 08/04 Q1005 R34L/290150 NOSIG RMK MT OBSC QFE750/1001
UHPP 191358Z 1915/2021 36003G12MPS 5000 BR BKN020CB TEMPO 1915/1922 0700 FG VV002 FM192200 31003G14MPS 9999 BKN030CB TEMPO 1922/1924 26005G17MPS 5000 -SHRA BKN015CB TEMPO 2000/2010 26008G20MPS FM201000 36003G12MPS 9999 SCT030CB

RUNWAY INFORMATION

Runway Runway length Runway width Runway elevation Runway displaced threshold Runway heading
12 735 50 0 0 118.1
30 735 50 0 0 298.1
16L 11155 197 112 0 157.2
34R 11155 197 131 0 337.2
16R 8235 197 0 0 157.3
34L 8235 197 0 0 337.3

AIRPORT FREQUENCIES

Type Name Frequency
ARSA PETROPAVLO 119.4 MHZ
TWR PETROPAVLO 118.1 MHZ

Flightplan

Air Sicilia Virtual Airways Fleets

AVAILABLE AIRCRAFTS for route at this time in Yakutsk Airport
A318 - Airbus A318
( UE ) Airbus

Aircraft in fleet: 1

A319 - Airbus A319
( UE ) Airbus

Aircraft in fleet: 7

A320 - Airbus A320
( UE ) Airbus

Aircraft in fleet: 15

A321 - Airbus A321
( UE ) Airbus

Aircraft in fleet: 6

A332 - Airbus A330-200
( UE ) Airbus

Aircraft in fleet: 7

B738 - Boeing 737-800 NGX
( US ) Boeing

Aircraft in fleet: 33

B739 - Boeing 737-900 NGX
( US ) Boeing

Aircraft in fleet: 2

B748 - BOEING 747-8 Intercontinental Passenger
( US ) Boeing

Aircraft in fleet: 3

B74F - BOEING 747 Freight
( US ) Boeing

Aircraft in fleet: 6

B752 - Boeing 757 - 200 Passenger
( US ) Boeing

Aircraft in fleet: 1

B75F - Boeing 757 - 200 Freight
( US ) Boeing

Aircraft in fleet: 4

B77F - Boeing 777F
( US ) Boeing

Aircraft in fleet: 6

B77W - Boeing 777-300ER
( US ) Boeing

Aircraft in fleet: 4

DH8D - Dash 8 Q400
( CA ) Bombardier

Aircraft in fleet: 6

E195 - Embraer E195
( BR ) Embraer

Aircraft in fleet: 3

MD82 - McDonnel Douglas MD82
( US ) Douglas

Aircraft in fleet: 3

1057 NM

Distance in nautical miles.

€ 200,00

Ticket price for this flight.

Nr. 26

Leg



12-11-2018
Aerosoft Airport Rio de Janeiro International V2.0 XP

L'Aeroporto Internazionale di Rio de Janeiro-Galeão (IATA: GIG, ICAO: SBGL), costruito nel 1952 nel quartiere di Ilha do Governador ed intitolato al musicista Antônio Carlos Jobim, è il principale aeroporto internazio ....


15-10-2018
Aerosoft A320 Family professional

La gamma di aeromobili A320 è una delle più comuni nei cieli. Questi aerei di linea a doppio-getto a corto e medio raggio si sono dimostrati convenienti, affidabili e prontamente disponibili, rendendoli le opzioni migl ....


10-10-2018
Motore critico ( Critical Engine )

Il motore critico di un velivolo ad ala fissa multi-motore è il motore che, in caso di guasto, influirebbe negativamente sulle prestazioni o sulla capacità di manovra di un aereo. Sui velivoli ad elica, vi è un ....


04-10-2018
Aerosoft Dortmund XP

Scopri il centro della regione della Ruhr su XPlane 11 - lo scenario Dortmund XP è una ricostruzione completa della città di Dortmund per il simulatore di volo targato Laminar. Oltre all'intera area urbana di Dortmu ....


07-08-2018
Aerosoft Professional Flight Planner PFPX

PFPX - Professional Flight Planner X - è un nuovo ed innovativo strumento di pianificazione del volo sviluppato da piloti e dispatcher del mondo reale. È un'aggiunta preziosa e realistica alla tua esperienza di simulaz ....